Wetter

Nordholz:

METAR:

2018/08/20 19:20 ETMN 201920Z 34005KT 9999 BKN047 17/12 Q1020 BLU

TAF:

2018/08/20 17:33 TAF ETMN 201625Z 2017/2102 31010KT 9999 NSW SCT020 BKN030 TEMPO 2017/2022 33012KT 8000 -SHRA SCT015 BKN020 CANCEL 1850

Wind EDXN:

20.08. 18:30z 330/06G10kt
20.08. 18:40z 320/08kt
20.08. 18:50z 330/07kt
20.08. 19:00z 330/06kt
20.08. 19:10z 340/05kt
20.08. 19:20z 330/06kt
20.08. 19:30z 340/05G09kt
20.08. 19:40z 320/04kt
20.08. 19:50z 310/04kt 270V330
20.08. 20:00z 310/04kt

Bremen:

METAR:

2018/08/20 19:50 EDDW 201950Z 35006KT 9999 FEW028 BKN065 19/15 Q1020 NOSIG

TAF:

2018/08/20 18:27 TAF EDDW 201700Z 2018/2118 32003KT 9999 SCT025 PROB30 TEMPO 2104/2107 4500 -DZ BKN014 BECMG 2106/2108 11005KT

Hamburg:

METAR:

2018/08/20 19:50 EDDH 201950Z 31007KT 9999 FEW026 BKN300 17/12 Q1019 NOSIG

TAF:

2018/08/20 18:27 TAF EDDH 201700Z 2018/2124 30010KT 9999 SCT030 BECMG 2018/2020 30005KT BECMG 2022/2024 VRB02KT BECMG 2118/2120 11005KT

Hannover:

METAR:

2018/08/20 19:50 EDDV 201950Z 32006KT 9999 BKN035 19/15 Q1019 NOSIG

TAF:

2018/08/20 18:27 TAF EDDV 201700Z 2018/2118 33004KT 9999 SCT035 BECMG 2105/2107 11005KT

Wikipedia Artikel: METARTAF

Daten von Aviation Weather Center der NOAA, es kann keine Garantie für Aktualität und Richtigkeit der Daten übernommen werden.

Die Nutzung dieser Daten zur Flugplanung ist nicht zulässig!

Inoffizielle ATIS 🙂